East Orange, NJ (07017)

7:30 AM EDT on October 21, 2014 (GMT -0400)
Forest Hill | Change Station
CLOSE
Current Station
Personal Weather Station
Location: Newark, NJ
Elevation: 54 m
Nearby Weather Stations

Elev 54 m 40.77 °N, 74.17 °W | Updated 3 seconds ago

Overcast
Overcast
9.1 °C
Feels Like 9 °C
N
0.0
Wind Variable Wind from SW
Gusts 0.0 km/h

Today
High -- | Low -- °C
--% Chance of Precip.
Yesterday
High -- | Low -- °C
Precip. -- mm
7:14 AM 6:07 PM
Waning Crescent, 6% visible
Pressure 1012 hPa
Visibility 16.1 kilometers
Clouds Few 1524 m
Mostly Cloudy 2743 m
Overcast 4572 m
Windchill 9 °C
Dew Point 8 °C
Humidity 90%
Rainfall 0 mm
Snow Depth Not available.
UV 0 out of 12
Pollen .70 out of 12
Air Quality Not available.
Flu Activity Sporadic
METAR KEWR 211051Z 05003KT 10SM FEW050 BKN090 OVC150 12/07 A2989 RMK AO2 SLP121 T01170067

More Conditions Fewer Conditions

Pressure 1012 hPa
Visibility 16.1 kilometers
Clouds Few 1524 m
Mostly Cloudy 2743 m
Overcast 4572 m
Windchill 9 °C
Dew Point 8 °C
Humidity 90%
Rainfall 0 mm
Snow Depth Not available.
UV 0 out of 12
Pollen .70 out of 12
Air Quality Not available.
Flu Activity Sporadic
METAR KEWR 211051Z 05003KT 10SM FEW050 BKN090 OVC150 12/07 A2989 RMK AO2 SLP121 T01170067

More Conditions Fewer Conditions

10-Day Weather Forecast

Almanac

Astronomy

Oct. 21, 2014 Rise Set
Actual Time 7:14 AM EDT 6:07 PM EDT
Civil Twilight 6:46 AM EDT 6:35 PM EDT
Nautical Twilight 6:14 AM EDT 7:07 PM EDT
Astronomical Twilight 5:43 AM EDT 7:39 PM EDT
Moon 4:55 AM EDT 5:00 PM EDT
Length of Visible Light 11h 48m
Length of Day
10h 53m
Tomorrow will be 2m 33s shorter.
Waning Crescent, 6% of the Moon is Illuminated
Today
Waning Crescent
Oct 23
New
Oct 30
First Quarter
Nov 6
Full
Nov 14
Last Quarter

Today's Extremes

State Highs State Lows

Community

WunderPhotos

Upload Photos

1,763,626 photos uploaded!

Nearby

Snow Depth

Station Depth Elevation
No new snow has been reported.

Earthquake Activity

City Distance Mag. Time & Date
No recent earthquake activity has been reported nearby.
Minimum magnitude displayed is 2.5.

Coastal Water Temperatures

Place Temperature
Sandy Hook, NJ 16.1 °C
The Battery, NY 17.2 °C
Kings Point, NY 15.0 °C

Nearby Weather Stations